EW9136 Weather Reports


Display with metric or nautical units.
time (UTC)temp
F
wind
direction
speed
MPH
gust
MPH
rain 1hr
in
rain 24hr
in
rain mn
in
humidity
%
barometer
mb
20200923224546 49 273 4.0 9.0 0.00 0.34 0.34 92 993.4
20200923223113 49 231 5.0 10.0 0.00 0.34 0.34 92 993.3
20200923221555 49 239 3.0 10.0 0.00 0.34 0.34 91 993.3
20200923220129 49 302 2.0 13.0 0.00 0.34 0.34 91 993.2
20200923214544 49 299 6.0 13.0 0.01 0.34 0.34 92 993.3
20200923213135 49 304 5.0 10.0 0.02 0.34 0.34 92 993.5
20200923211605 49 267 6.0 10.0 0.02 0.34 0.34 92 993.5
20200923210151 49 217 1.0 9.0 0.02 0.34 0.34 92 993.8
20200923204621 49 355 7.0 16.0 0.01 0.33 0.33 93 993.7
20200923203034 50 360 4.0 10.0 0.01 0.32 0.32 93 994.0
20200923201534 50 294 4.0 8.0 0.05 0.32 0.32 92 994.4
20200923200058 50 283 4.0 12.0 0.05 0.32 0.32 92 994.2
20200923194546 50 310 3.0 8.0 0.06 0.32 0.32 93 994.2
20200923193042 51 291 5.0 10.0 0.06 0.31 0.31 93 994.4
20200923191557 51 306 5.0 14.0 0.02 0.28 0.28 92 994.3
20200923190036 51 314 5.0 10.0 0.04 0.28 0.28 92 994.2
20200923184532 51 323 4.0 12.0 0.05 0.26 0.26 92 994.3
20200923183107 51 326 4.0 12.0 0.05 0.26 0.26 92 994.5
20200923181521 51 290 3.0 9.0 0.04 0.25 0.25 93 994.5
20200923180100 51 283 2.0 10.0 0.02 0.24 0.24 93 994.5
20200923174529 51 360 6.0 15.0 0.00 0.21 0.21 93 994.4
20200923173050 51 340 7.0 14.0 0.00 0.21 0.21 93 994.4
20200923171531 52 12 8.0 18.0 0.00 0.21 0.21 93 994.3
20200923170032 52 330 10.0 17.0 0.00 0.21 0.21 93 994.3
20200923164524 52 5 11.0 18.0 0.00 0.21 0.21 93 994.3
20200923163022 52 13 11.0 18.0 0.00 0.21 0.21 93 994.2
20200923161514 52 350 11.0 18.0 0.00 0.21 0.21 93 994.5
20200923160215 53 35 9.0 16.0 0.01 0.21 0.21 93 994.9
20200923154714 53 32 7.0 18.0 0.02 0.21 0.21 93 995.2
20200923153206 53 34 9.0 17.0 0.03 0.21 0.21 93 995.4
20200923151800 53 348 7.0 15.0 0.05 0.21 0.21 93 995.5
20200923150145 53 340 7.0 13.0 0.05 0.20 0.20 93 995.8
20200923144610 53 336 7.0 13.0 0.05 0.19 0.19 93 995.9
20200923143143 53 355 9.0 15.0 0.04 0.18 0.18 93 996.0
20200923141647 53 34 12.0 19.0 0.03 0.17 0.17 93 995.9
20200923140144 53 5 11.0 17.0 0.03 0.16 0.16 93 996.1
20200923134627 54 26 7.0 13.0 0.02 0.14 0.14 92 996.3
20200923133127 54 36 10.0 14.0 0.03 0.14 0.14 92 996.4
20200923131632 55 5 7.0 14.0 0.02 0.13 0.13 92 996.7
20200923130142 54 355 3.0 8.0 0.02 0.13 0.13 92 996.7
20200923124615 54 39 2.0 9.0 0.01 0.12 0.12 92 996.9
20200923123057 54 10 4.0 11.0 0.00 0.11 0.11 92 997.1
20200923121545 54 30 8.0 13.0 0.00 0.11 0.11 92 997.1
20200923120146 55 38 7.0 13.0 0.00 0.11 0.11 91 997.2
20200923114554 56 43 3.0 10.0 0.00 0.11 0.11 91 997.2
20200923113045 55 19 5.0 10.0 0.00 0.11 0.11 91 997.3
20200923111619 55 18 4.0 8.0 0.01 0.11 0.11 91 997.5
20200923110133 55 38 2.0 7.0 0.02 0.11 0.11 91 997.6
20200923104720 54 45 3.0 9.0 0.02 0.11 0.11 91 997.7
20200923103141 54 338 2.0 6.0 0.02 0.11 0.11 91 997.8
20200923101654 54 41 4.0 9.0 0.02 0.10 0.10 91 997.9
20200923100109 54 18 0.0 5.0 0.02 0.09 0.09 91 998.1
20200923094645 54 18 4.0 13.0 0.06 0.09 0.09 91 998.0
20200923093259 54 65 1.0 3.0 0.06 0.09 0.09 90 998.3
20200923091621 54 336 0.0 6.0 0.05 0.08 0.08 90 998.3
20200923090103 54 355 4.0 9.0 0.05 0.08 0.08 90 998.2
20200923084609 55 28 6.0 10.0 0.00 0.03 0.03 89 998.2
20200923083105 55 26 3.0 8.0 0.00 0.03 0.03 87 998.3
20200923081554 58 13 4.0 9.0 0.00 0.03 0.03 91 998.2
20200923080109 58 188 3.0 7.0 0.00 0.03 0.03 91 997.9
20200923074655 58 188 4.0 8.0 0.02 0.03 0.03 91 997.9
20200923073053 58 182 2.0 7.0 0.03 0.03 0.03 91 998.1
20200923071558 58 167 3.0 6.0 0.03 0.03 0.03 90 998.2
20200923070049 58 178 2.0 5.0 0.02 0.02 0.02 91 998.3
20200923064608 58 173 3.0 9.0 0.02 0.02 0.02 90 998.4
20200923063051 58 161 5.0 10.0 0.00 0.00 0.00 89 998.3
20200923061553 58 163 4.0 8.0 0.00 0.00 0.00 88 998.4
20200923060147 58 145 5.0 11.0 0.00 0.00 0.00 88 998.3
20200923054557 58 154 6.0 12.0 0.00 0.00 0.00 88 998.3
20200923053032 58 169 6.0 12.0 0.00 0.00 0.00 88 998.3
20200923051541 58 196 7.0 11.0 0.00 0.00 0.00 87 998.4
20200923050054 58 165 5.0 10.0 0.00 0.00 0.00 86 998.5
20200923044558 58 178 4.0 8.0 0.00 0.00 0.00 86 998.6
20200923043051 58 172 5.0 10.0 0.00 0.00 0.00 86 998.6
20200923041536 59 183 5.0 8.0 0.00 0.00 0.00 85 998.8
20200923040021 59 178 6.0 10.0 0.00 0.00 0.00 85 999.0
20200923034520 59 195 4.0 9.0 0.00 0.00 0.00 85 999.0
20200923033019 59 187 5.0 10.0 0.00 0.00 0.00 85 999.0
20200923031522 59 190 5.0 9.0 0.00 0.00 0.00 85 999.2
20200923030018 59 190 5.0 9.0 0.00 0.00 0.00 85 999.2
20200923024520 59 168 5.0 11.0 0.00 0.00 0.00 84 999.3
20200923023234 59 181 6.0 12.0 0.00 0.00 0.00 84 999.5
20200923021807 60 203 7.0 17.0 0.00 0.00 0.00 84 999.6
20200923020136 60 194 7.0 14.0 0.00 0.00 0.00 83 999.6
20200923014719 60 194 7.0 13.0 0.00 0.00 0.00 84 999.7
20200923013154 60 196 6.0 11.0 0.00 0.00 0.00 83 999.9
20200923011650 60 207 6.0 11.0 0.00 0.00 0.00 83 999.8
20200923010122 60 190 7.0 11.0 0.00 0.00 0.00 83 1000.0
20200923004614 60 196 6.0 14.0 0.00 0.00 0.00 83 999.9
20200923003146 60 198 9.0 13.0 0.00 0.00 0.00 83 999.9
20200923001738 60 186 9.0 18.0 0.00 0.00 0.00 82 999.8
20200923000233 60 175 7.0 11.0 0.00 0.00 0.00 82 999.9
20200922234610 60 202 7.0 15.0 0.00 0.00 0.00 82 1000.0
20200922233137 60 205 10.0 17.0 0.00 0.00 0.00 82 1000.0
20200922231652 60 201 8.0 18.0 0.00 0.00 0.00 82 1000.1
20200922230143 61 202 9.0 18.0 0.00 0.00 0.00 82 1000.2